sensor_id;sensor_type;location;lat;lon;timestamp;P1;durP1;ratioP1;P2;durP2;ratioP2
12846;SDS011;6492;48.128;8.320;2022-11-20T00:02:44;5.40;;;3.90;;
12846;SDS011;6492;48.128;8.320;2022-11-20T00:06:46;5.73;;;4.07;;
12846;SDS011;6492;48.128;8.320;2022-11-20T00:10:48;4.97;;;4.03;;
12846;SDS011;6492;48.128;8.320;2022-11-20T00:14:50;4.50;;;3.80;;
12846;SDS011;6492;48.128;8.320;2022-11-20T00:18:53;4.87;;;4.00;;
12846;SDS011;6492;48.128;8.320;2022-11-20T00:22:55;3.93;;;3.53;;
12846;SDS011;6492;48.128;8.320;2022-11-20T00:26:58;4.60;;;3.50;;
12846;SDS011;6492;48.128;8.320;2022-11-20T00:31:00;6.67;;;3.20;;
12846;SDS011;6492;48.128;8.320;2022-11-20T00:35:05;4.07;;;3.33;;
12846;SDS011;6492;48.128;8.320;2022-11-20T00:39:07;3.77;;;3.00;;
12846;SDS011;6492;48.128;8.320;2022-11-20T00:47:53;3.93;;;3.37;;
12846;SDS011;6492;48.128;8.320;2022-11-20T00:51:56;4.30;;;3.90;;
12846;SDS011;6492;48.128;8.320;2022-11-20T00:55:58;3.17;;;2.60;;
12846;SDS011;6492;48.128;8.320;2022-11-20T01:00:01;3.53;;;3.20;;
12846;SDS011;6492;48.128;8.320;2022-11-20T01:04:03;3.40;;;2.90;;
12846;SDS011;6492;48.128;8.320;2022-11-20T01:08:07;4.23;;;3.10;;
12846;SDS011;6492;48.128;8.320;2022-11-20T01:12:09;3.30;;;2.90;;
12846;SDS011;6492;48.128;8.320;2022-11-20T01:16:12;3.33;;;2.90;;
12846;SDS011;6492;48.128;8.320;2022-11-20T01:20:16;3.60;;;2.83;;
12846;SDS011;6492;48.128;8.320;2022-11-20T01:24:20;3.80;;;2.70;;
12846;SDS011;6492;48.128;8.320;2022-11-20T01:28:23;4.20;;;3.00;;
12846;SDS011;6492;48.128;8.320;2022-11-20T01:32:25;4.53;;;2.80;;
12846;SDS011;6492;48.128;8.320;2022-11-20T01:36:27;4.30;;;2.90;;
12846;SDS011;6492;48.128;8.320;2022-11-20T01:40:32;3.77;;;2.67;;
12846;SDS011;6492;48.128;8.320;2022-11-20T01:44:43;3.07;;;2.47;;
12846;SDS011;6492;48.128;8.320;2022-11-20T01:48:51;4.93;;;2.67;;
12846;SDS011;6492;48.128;8.320;2022-11-20T01:52:57;3.00;;;2.70;;
12846;SDS011;6492;48.128;8.320;2022-11-20T01:57:04;2.77;;;2.40;;
12846;SDS011;6492;48.128;8.320;2022-11-20T02:01:08;3.53;;;2.80;;
12846;SDS011;6492;48.128;8.320;2022-11-20T02:05:12;4.57;;;2.70;;
12846;SDS011;6492;48.128;8.320;2022-11-20T02:09:19;4.17;;;2.80;;
12846;SDS011;6492;48.128;8.320;2022-11-20T02:13:22;3.50;;;2.60;;
12846;SDS011;6492;48.128;8.320;2022-11-20T02:17:41;3.23;;;2.50;;
12846;SDS011;6492;48.128;8.320;2022-11-20T02:21:45;3.20;;;2.53;;
12846;SDS011;6492;48.128;8.320;2022-11-20T02:25:54;2.93;;;2.50;;
12846;SDS011;6492;48.128;8.320;2022-11-20T02:29:59;2.67;;;2.47;;
12846;SDS011;6492;48.128;8.320;2022-11-20T02:34:04;2.50;;;2.30;;
12846;SDS011;6492;48.128;8.320;2022-11-20T02:38:06;2.60;;;2.40;;
12846;SDS011;6492;48.128;8.320;2022-11-20T02:42:09;4.03;;;2.67;;
12846;SDS011;6492;48.128;8.320;2022-11-20T02:46:11;3.53;;;2.33;;
12846;SDS011;6492;48.128;8.320;2022-11-20T02:50:12;2.83;;;2.30;;
12846;SDS011;6492;48.128;8.320;2022-11-20T02:54:14;3.13;;;2.37;;
12846;SDS011;6492;48.128;8.320;2022-11-20T02:58:17;3.40;;;2.43;;
12846;SDS011;6492;48.128;8.320;2022-11-20T03:02:19;3.77;;;2.00;;
12846;SDS011;6492;48.128;8.320;2022-11-20T03:06:21;2.30;;;2.10;;
12846;SDS011;6492;48.128;8.320;2022-11-20T03:10:23;4.07;;;2.37;;
12846;SDS011;6492;48.128;8.320;2022-11-20T03:19:02;1.80;;;1.70;;
12846;SDS011;6492;48.128;8.320;2022-11-20T03:23:03;2.60;;;2.03;;
12846;SDS011;6492;48.128;8.320;2022-11-20T03:27:05;2.37;;;2.17;;
12846;SDS011;6492;48.128;8.320;2022-11-20T03:31:10;2.70;;;2.43;;
12846;SDS011;6492;48.128;8.320;2022-11-20T03:35:13;2.50;;;2.30;;
12846;SDS011;6492;48.128;8.320;2022-11-20T03:39:15;3.50;;;2.43;;
12846;SDS011;6492;48.128;8.320;2022-11-20T03:43:16;4.57;;;2.77;;
12846;SDS011;6492;48.128;8.320;2022-11-20T03:47:19;4.20;;;2.50;;
12846;SDS011;6492;48.128;8.320;2022-11-20T03:51:22;2.70;;;2.50;;
12846;SDS011;6492;48.128;8.320;2022-11-20T03:55:25;2.53;;;2.30;;
12846;SDS011;6492;48.128;8.320;2022-11-20T03:59:27;4.37;;;2.70;;
12846;SDS011;6492;48.128;8.320;2022-11-20T04:03:30;2.70;;;2.47;;
12846;SDS011;6492;48.128;8.320;2022-11-20T04:07:33;2.97;;;2.40;;
12846;SDS011;6492;48.128;8.320;2022-11-20T04:11:36;4.20;;;2.70;;
12846;SDS011;6492;48.128;8.320;2022-11-20T04:15:40;3.00;;;2.63;;
12846;SDS011;6492;48.128;8.320;2022-11-20T04:19:45;2.50;;;2.30;;
12846;SDS011;6492;48.128;8.320;2022-11-20T04:23:47;5.77;;;2.60;;
12846;SDS011;6492;48.128;8.320;2022-11-20T04:27:49;3.03;;;2.63;;
12846;SDS011;6492;48.128;8.320;2022-11-20T04:31:51;3.97;;;2.30;;
12846;SDS011;6492;48.128;8.320;2022-11-20T04:35:54;3.33;;;2.87;;
12846;SDS011;6492;48.128;8.320;2022-11-20T04:39:56;3.63;;;2.83;;
12846;SDS011;6492;48.128;8.320;2022-11-20T04:43:58;3.10;;;2.80;;
12846;SDS011;6492;48.128;8.320;2022-11-20T04:48:03;3.60;;;2.60;;
12846;SDS011;6492;48.128;8.320;2022-11-20T04:52:06;3.93;;;3.53;;
12846;SDS011;6492;48.128;8.320;2022-11-20T04:56:09;3.60;;;2.90;;
12846;SDS011;6492;48.128;8.320;2022-11-20T05:00:13;4.80;;;2.70;;
12846;SDS011;6492;48.128;8.320;2022-11-20T05:04:15;4.77;;;2.67;;
12846;SDS011;6492;48.128;8.320;2022-11-20T05:08:19;3.67;;;2.50;;
12846;SDS011;6492;48.128;8.320;2022-11-20T05:12:21;2.67;;;2.30;;
12846;SDS011;6492;48.128;8.320;2022-11-20T05:16:23;2.90;;;2.27;;
12846;SDS011;6492;48.128;8.320;2022-11-20T05:20:25;3.10;;;2.30;;
12846;SDS011;6492;48.128;8.320;2022-11-20T05:24:28;2.57;;;2.37;;
12846;SDS011;6492;48.128;8.320;2022-11-20T05:28:30;2.37;;;2.13;;
12846;SDS011;6492;48.128;8.320;2022-11-20T05:32:33;2.40;;;2.20;;
12846;SDS011;6492;48.128;8.320;2022-11-20T05:36:35;2.30;;;2.10;;
12846;SDS011;6492;48.128;8.320;2022-11-20T05:40:38;2.37;;;2.13;;
12846;SDS011;6492;48.128;8.320;2022-11-20T05:44:40;2.50;;;2.30;;
12846;SDS011;6492;48.128;8.320;2022-11-20T05:48:42;2.07;;;1.87;;
12846;SDS011;6492;48.128;8.320;2022-11-20T05:52:45;2.53;;;1.90;;
12846;SDS011;6492;48.128;8.320;2022-11-20T05:56:48;2.00;;;1.80;;
12846;SDS011;6492;48.128;8.320;2022-11-20T06:00:49;2.77;;;2.53;;
12846;SDS011;6492;48.128;8.320;2022-11-20T06:04:51;1.80;;;1.70;;
12846;SDS011;6492;48.128;8.320;2022-11-20T06:08:54;1.97;;;1.67;;
12846;SDS011;6492;48.128;8.320;2022-11-20T06:12:58;3.17;;;2.57;;
12846;SDS011;6492;48.128;8.320;2022-11-20T06:17:00;2.30;;;1.73;;
12846;SDS011;6492;48.128;8.320;2022-11-20T06:21:02;3.23;;;2.00;;
12846;SDS011;6492;48.128;8.320;2022-11-20T06:25:05;3.13;;;2.17;;
12846;SDS011;6492;48.128;8.320;2022-11-20T06:29:09;5.10;;;3.27;;
12846;SDS011;6492;48.128;8.320;2022-11-20T06:33:11;2.43;;;2.23;;
12846;SDS011;6492;48.128;8.320;2022-11-20T06:37:13;2.53;;;2.33;;
12846;SDS011;6492;48.128;8.320;2022-11-20T06:41:17;2.03;;;1.83;;
12846;SDS011;6492;48.128;8.320;2022-11-20T06:45:21;1.53;;;1.43;;
12846;SDS011;6492;48.128;8.320;2022-11-20T06:49:22;2.27;;;1.90;;
12846;SDS011;6492;48.128;8.320;2022-11-20T06:53:25;2.10;;;1.23;;
12846;SDS011;6492;48.128;8.320;2022-11-20T06:57:27;1.87;;;1.77;;
12846;SDS011;6492;48.128;8.320;2022-11-20T07:01:30;1.33;;;1.23;;
12846;SDS011;6492;48.128;8.320;2022-11-20T07:05:32;1.20;;;1.07;;
12846;SDS011;6492;48.128;8.320;2022-11-20T07:09:34;2.90;;;2.60;;
12846;SDS011;6492;48.128;8.320;2022-11-20T07:13:36;5.17;;;3.80;;
12846;SDS011;6492;48.128;8.320;2022-11-20T07:17:39;9.60;;;6.57;;
12846;SDS011;6492;48.128;8.320;2022-11-20T07:21:41;1.67;;;1.57;;
12846;SDS011;6492;48.128;8.320;2022-11-20T07:25:44;2.50;;;2.30;;
12846;SDS011;6492;48.128;8.320;2022-11-20T07:29:46;1.73;;;1.63;;
12846;SDS011;6492;48.128;8.320;2022-11-20T07:33:49;1.40;;;1.30;;
12846;SDS011;6492;48.128;8.320;2022-11-20T07:37:55;1.70;;;1.60;;
12846;SDS011;6492;48.128;8.320;2022-11-20T07:42:09;6.00;;;4.63;;
12846;SDS011;6492;48.128;8.320;2022-11-20T07:46:12;1.87;;;1.73;;
12846;SDS011;6492;48.128;8.320;2022-11-20T07:50:15;4.17;;;3.77;;
12846;SDS011;6492;48.128;8.320;2022-11-20T07:54:18;1.50;;;1.40;;
12846;SDS011;6492;48.128;8.320;2022-11-20T07:58:20;6.03;;;5.00;;
12846;SDS011;6492;48.128;8.320;2022-11-20T08:02:22;2.03;;;1.90;;
12846;SDS011;6492;48.128;8.320;2022-11-20T08:06:34;4.37;;;3.97;;
12846;SDS011;6492;48.128;8.320;2022-11-20T08:15:22;2.03;;;1.83;;
12846;SDS011;6492;48.128;8.320;2022-11-20T08:19:40;2.30;;;2.10;;
12846;SDS011;6492;48.128;8.320;2022-11-20T08:23:46;2.40;;;2.20;;
12846;SDS011;6492;48.128;8.320;2022-11-20T08:28:00;2.23;;;1.73;;
12846;SDS011;6492;48.128;8.320;2022-11-20T08:32:03;14.17;;;8.97;;
12846;SDS011;6492;48.128;8.320;2022-11-20T08:36:05;6.00;;;4.20;;
12846;SDS011;6492;48.128;8.320;2022-11-20T08:40:11;5.40;;;3.30;;
12846;SDS011;6492;48.128;8.320;2022-11-20T08:44:27;5.13;;;4.20;;
12846;SDS011;6492;48.128;8.320;2022-11-20T08:48:36;3.80;;;2.70;;
12846;SDS011;6492;48.128;8.320;2022-11-20T08:52:38;10.47;;;9.17;;
12846;SDS011;6492;48.128;8.320;2022-11-20T08:56:41;2.60;;;2.40;;
12846;SDS011;6492;48.128;8.320;2022-11-20T09:00:47;2.40;;;2.03;;
12846;SDS011;6492;48.128;8.320;2022-11-20T09:04:58;5.23;;;4.07;;
12846;SDS011;6492;48.128;8.320;2022-11-20T09:09:03;1.70;;;1.60;;
12846;SDS011;6492;48.128;8.320;2022-11-20T09:13:14;1.83;;;1.60;;
12846;SDS011;6492;48.128;8.320;2022-11-20T09:17:16;1.80;;;1.13;;
12846;SDS011;6492;48.128;8.320;2022-11-20T09:21:18;1.47;;;1.37;;
12846;SDS011;6492;48.128;8.320;2022-11-20T09:25:20;2.77;;;2.57;;
12846;SDS011;6492;48.128;8.320;2022-11-20T09:29:23;2.03;;;1.90;;
12846;SDS011;6492;48.128;8.320;2022-11-20T09:33:26;3.17;;;2.87;;
12846;SDS011;6492;48.128;8.320;2022-11-20T09:37:28;2.23;;;2.03;;
12846;SDS011;6492;48.128;8.320;2022-11-20T09:41:36;2.27;;;2.03;;
12846;SDS011;6492;48.128;8.320;2022-11-20T09:45:56;2.17;;;1.97;;
12846;SDS011;6492;48.128;8.320;2022-11-20T09:50:14;2.20;;;2.00;;
12846;SDS011;6492;48.128;8.320;2022-11-20T09:54:43;1.70;;;1.60;;
12846;SDS011;6492;48.128;8.320;2022-11-20T09:58:47;1.90;;;1.80;;
12846;SDS011;6492;48.128;8.320;2022-11-20T10:02:54;2.00;;;1.83;;
12846;SDS011;6492;48.128;8.320;2022-11-20T10:07:02;1.70;;;1.53;;
12846;SDS011;6492;48.128;8.320;2022-11-20T10:16:03;3.00;;;2.70;;
12846;SDS011;6492;48.128;8.320;2022-11-20T10:20:40;1.30;;;1.20;;
12846;SDS011;6492;48.128;8.320;2022-11-20T10:29:45;4.90;;;4.50;;
12846;SDS011;6492;48.128;8.320;2022-11-20T10:38:56;2.40;;;1.60;;
12846;SDS011;6492;48.128;8.320;2022-11-20T10:47:39;3.57;;;2.70;;
12846;SDS011;6492;48.128;8.320;2022-11-20T10:51:47;2.60;;;1.90;;
12846;SDS011;6492;48.128;8.320;2022-11-20T10:56:00;2.20;;;2.00;;
12846;SDS011;6492;48.128;8.320;2022-11-20T11:04:37;3.70;;;2.20;;
12846;SDS011;6492;48.128;8.320;2022-11-20T11:08:44;3.80;;;2.80;;
12846;SDS011;6492;48.128;8.320;2022-11-20T11:12:49;4.17;;;2.50;;
12846;SDS011;6492;48.128;8.320;2022-11-20T11:20:57;3.10;;;2.17;;
12846;SDS011;6492;48.128;8.320;2022-11-20T11:25:00;4.27;;;2.60;;
12846;SDS011;6492;48.128;8.320;2022-11-20T11:29:04;3.40;;;2.33;;
12846;SDS011;6492;48.128;8.320;2022-11-20T11:33:18;4.20;;;2.67;;
12846;SDS011;6492;48.128;8.320;2022-11-20T11:37:21;2.73;;;2.53;;
12846;SDS011;6492;48.128;8.320;2022-11-20T11:41:23;2.20;;;2.00;;
12846;SDS011;6492;48.128;8.320;2022-11-20T11:45:51;2.43;;;2.20;;
12846;SDS011;6492;48.128;8.320;2022-11-20T11:50:14;4.13;;;3.37;;
12846;SDS011;6492;48.128;8.320;2022-11-20T11:54:19;3.50;;;3.00;;
12846;SDS011;6492;48.128;8.320;2022-11-20T11:58:33;3.13;;;2.40;;
12846;SDS011;6492;48.128;8.320;2022-11-20T12:02:48;2.00;;;1.77;;
12846;SDS011;6492;48.128;8.320;2022-11-20T12:07:07;2.83;;;2.57;;
12846;SDS011;6492;48.128;8.320;2022-11-20T12:11:15;2.70;;;2.27;;
12846;SDS011;6492;48.128;8.320;2022-11-20T12:15:30;1.70;;;1.60;;
12846;SDS011;6492;48.128;8.320;2022-11-20T12:19:48;1.70;;;1.60;;
12846;SDS011;6492;48.128;8.320;2022-11-20T12:23:56;2.40;;;2.20;;
12846;SDS011;6492;48.128;8.320;2022-11-20T12:28:14;1.97;;;1.87;;
12846;SDS011;6492;48.128;8.320;2022-11-20T12:37:23;2.07;;;1.60;;
12846;SDS011;6492;48.128;8.320;2022-11-20T12:41:45;1.60;;;1.50;;
12846;SDS011;6492;48.128;8.320;2022-11-20T12:50:38;1.80;;;1.30;;
12846;SDS011;6492;48.128;8.320;2022-11-20T12:55:04;1.97;;;1.50;;
12846;SDS011;6492;48.128;8.320;2022-11-20T12:59:28;2.10;;;1.90;;
12846;SDS011;6492;48.128;8.320;2022-11-20T13:03:48;5.00;;;3.57;;
12846;SDS011;6492;48.128;8.320;2022-11-20T13:07:58;4.43;;;2.70;;
12846;SDS011;6492;48.128;8.320;2022-11-20T13:12:04;10.03;;;5.97;;
12846;SDS011;6492;48.128;8.320;2022-11-20T13:16:14;19.60;;;9.83;;
12846;SDS011;6492;48.128;8.320;2022-11-20T13:20:36;21.53;;;11.00;;
12846;SDS011;6492;48.128;8.320;2022-11-20T13:24:52;17.23;;;9.00;;
12846;SDS011;6492;48.128;8.320;2022-11-20T13:33:31;10.97;;;5.80;;
12846;SDS011;6492;48.128;8.320;2022-11-20T13:37:36;4.03;;;3.23;;
12846;SDS011;6492;48.128;8.320;2022-11-20T13:41:39;4.53;;;2.80;;
12846;SDS011;6492;48.128;8.320;2022-11-20T13:45:41;6.77;;;3.80;;
12846;SDS011;6492;48.128;8.320;2022-11-20T13:49:44;3.47;;;2.60;;
12846;SDS011;6492;48.128;8.320;2022-11-20T13:53:52;2.93;;;2.50;;
12846;SDS011;6492;48.128;8.320;2022-11-20T14:07:44;3.53;;;2.63;;
12846;SDS011;6492;48.128;8.320;2022-11-20T14:11:46;7.90;;;5.90;;
12846;SDS011;6492;48.128;8.320;2022-11-20T14:15:48;3.50;;;3.20;;
12846;SDS011;6492;48.128;8.320;2022-11-20T14:33:01;3.63;;;2.30;;
12846;SDS011;6492;48.128;8.320;2022-11-20T14:37:05;4.43;;;3.60;;
12846;SDS011;6492;48.128;8.320;2022-11-20T14:41:17;3.40;;;2.67;;
12846;SDS011;6492;48.128;8.320;2022-11-20T14:45:21;2.73;;;2.53;;
12846;SDS011;6492;48.128;8.320;2022-11-20T14:49:25;3.43;;;2.47;;
12846;SDS011;6492;48.128;8.320;2022-11-20T14:57:35;4.50;;;3.23;;
12846;SDS011;6492;48.128;8.320;2022-11-20T15:01:37;2.97;;;2.40;;
12846;SDS011;6492;48.128;8.320;2022-11-20T15:05:44;9.13;;;6.13;;
12846;SDS011;6492;48.128;8.320;2022-11-20T15:09:47;3.83;;;2.37;;
12846;SDS011;6492;48.128;8.320;2022-11-20T15:18:36;2.63;;;2.43;;
12846;SDS011;6492;48.128;8.320;2022-11-20T15:22:39;2.20;;;1.97;;
12846;SDS011;6492;48.128;8.320;2022-11-20T15:26:41;4.47;;;2.70;;
12846;SDS011;6492;48.128;8.320;2022-11-20T15:30:44;3.10;;;2.67;;
12846;SDS011;6492;48.128;8.320;2022-11-20T15:35:02;5.37;;;4.03;;
12846;SDS011;6492;48.128;8.320;2022-11-20T15:39:05;6.63;;;5.93;;
12846;SDS011;6492;48.128;8.320;2022-11-20T15:43:08;8.27;;;5.77;;
12846;SDS011;6492;48.128;8.320;2022-11-20T15:51:46;4.43;;;3.10;;
12846;SDS011;6492;48.128;8.320;2022-11-20T16:05:15;3.83;;;2.00;;
12846;SDS011;6492;48.128;8.320;2022-11-20T16:09:18;5.43;;;3.93;;
12846;SDS011;6492;48.128;8.320;2022-11-20T16:13:20;5.40;;;4.00;;
12846;SDS011;6492;48.128;8.320;2022-11-20T16:17:39;9.23;;;6.83;;
12846;SDS011;6492;48.128;8.320;2022-11-20T16:21:45;3.53;;;3.20;;
12846;SDS011;6492;48.128;8.320;2022-11-20T16:25:47;3.40;;;3.10;;
12846;SDS011;6492;48.128;8.320;2022-11-20T16:34:25;2.67;;;2.20;;
12846;SDS011;6492;48.128;8.320;2022-11-20T16:38:28;3.27;;;2.80;;
12846;SDS011;6492;48.128;8.320;2022-11-20T16:42:31;2.97;;;2.67;;
12846;SDS011;6492;48.128;8.320;2022-11-20T16:50:53;5.03;;;3.60;;
12846;SDS011;6492;48.128;8.320;2022-11-20T16:54:59;4.60;;;2.77;;
12846;SDS011;6492;48.128;8.320;2022-11-20T17:03:11;2.07;;;1.87;;
12846;SDS011;6492;48.128;8.320;2022-11-20T17:07:20;3.70;;;2.47;;
12846;SDS011;6492;48.128;8.320;2022-11-20T17:11:30;1.63;;;1.53;;
12846;SDS011;6492;48.128;8.320;2022-11-20T17:15:32;1.50;;;1.40;;
12846;SDS011;6492;48.128;8.320;2022-11-20T17:19:34;2.20;;;1.87;;
12846;SDS011;6492;48.128;8.320;2022-11-20T17:23:37;8.83;;;5.20;;
12846;SDS011;6492;48.128;8.320;2022-11-20T17:27:41;18.87;;;6.10;;
12846;SDS011;6492;48.128;8.320;2022-11-20T17:31:43;3.17;;;2.87;;
12846;SDS011;6492;48.128;8.320;2022-11-20T17:35:45;2.77;;;1.80;;
12846;SDS011;6492;48.128;8.320;2022-11-20T17:39:47;2.43;;;1.83;;
12846;SDS011;6492;48.128;8.320;2022-11-20T17:43:53;5.10;;;3.17;;
12846;SDS011;6492;48.128;8.320;2022-11-20T17:47:56;3.00;;;2.70;;
12846;SDS011;6492;48.128;8.320;2022-11-20T17:51:58;1.73;;;1.50;;
12846;SDS011;6492;48.128;8.320;2022-11-20T17:56:00;4.33;;;2.50;;
12846;SDS011;6492;48.128;8.320;2022-11-20T18:00:21;3.67;;;2.00;;
12846;SDS011;6492;48.128;8.320;2022-11-20T18:04:30;3.77;;;3.07;;
12846;SDS011;6492;48.128;8.320;2022-11-20T18:08:41;2.50;;;2.30;;
12846;SDS011;6492;48.128;8.320;2022-11-20T18:12:43;2.43;;;1.97;;
12846;SDS011;6492;48.128;8.320;2022-11-20T18:16:47;1.80;;;1.47;;
12846;SDS011;6492;48.128;8.320;2022-11-20T18:20:54;2.23;;;1.97;;
12846;SDS011;6492;48.128;8.320;2022-11-20T18:24:55;2.33;;;1.90;;
12846;SDS011;6492;48.128;8.320;2022-11-20T18:28:57;3.43;;;2.00;;
12846;SDS011;6492;48.128;8.320;2022-11-20T18:33:02;2.73;;;1.73;;
12846;SDS011;6492;48.128;8.320;2022-11-20T18:37:12;2.87;;;2.33;;
12846;SDS011;6492;48.128;8.320;2022-11-20T18:41:16;5.90;;;3.60;;
12846;SDS011;6492;48.128;8.320;2022-11-20T18:45:32;4.77;;;2.27;;
12846;SDS011;6492;48.128;8.320;2022-11-20T18:49:36;1.67;;;1.57;;
12846;SDS011;6492;48.128;8.320;2022-11-20T18:53:37;1.43;;;1.00;;
12846;SDS011;6492;48.128;8.320;2022-11-20T18:57:46;1.00;;;1.00;;
12846;SDS011;6492;48.128;8.320;2022-11-20T19:01:48;0.70;;;0.70;;
12846;SDS011;6492;48.128;8.320;2022-11-20T19:05:51;0.80;;;0.80;;
12846;SDS011;6492;48.128;8.320;2022-11-20T19:09:53;0.77;;;0.73;;
12846;SDS011;6492;48.128;8.320;2022-11-20T19:13:55;1.03;;;0.60;;
12846;SDS011;6492;48.128;8.320;2022-11-20T19:17:58;1.40;;;1.10;;
12846;SDS011;6492;48.128;8.320;2022-11-20T19:26:29;0.60;;;0.60;;
12846;SDS011;6492;48.128;8.320;2022-11-20T19:30:32;0.40;;;0.40;;
12846;SDS011;6492;48.128;8.320;2022-11-20T19:34:33;0.30;;;0.30;;
12846;SDS011;6492;48.128;8.320;2022-11-20T19:38:37;0.37;;;0.37;;
12846;SDS011;6492;48.128;8.320;2022-11-20T19:46:57;0.80;;;0.50;;
12846;SDS011;6492;48.128;8.320;2022-11-20T19:51:07;0.50;;;0.50;;
12846;SDS011;6492;48.128;8.320;2022-11-20T19:55:11;0.30;;;0.30;;
12846;SDS011;6492;48.128;8.320;2022-11-20T19:59:12;0.50;;;0.50;;
12846;SDS011;6492;48.128;8.320;2022-11-20T20:03:14;6.33;;;2.87;;
12846;SDS011;6492;48.128;8.320;2022-11-20T20:07:26;0.50;;;0.50;;
12846;SDS011;6492;48.128;8.320;2022-11-20T20:11:30;0.53;;;0.43;;
12846;SDS011;6492;48.128;8.320;2022-11-20T20:15:33;3.43;;;3.13;;
12846;SDS011;6492;48.128;8.320;2022-11-20T20:19:34;0.37;;;0.37;;
12846;SDS011;6492;48.128;8.320;2022-11-20T20:23:36;0.70;;;0.70;;
12846;SDS011;6492;48.128;8.320;2022-11-20T20:27:48;0.67;;;0.63;;
12846;SDS011;6492;48.128;8.320;2022-11-20T20:31:50;0.70;;;0.60;;
12846;SDS011;6492;48.128;8.320;2022-11-20T20:35:52;0.73;;;0.43;;
12846;SDS011;6492;48.128;8.320;2022-11-20T20:40:03;0.80;;;0.60;;
12846;SDS011;6492;48.128;8.320;2022-11-20T20:44:07;0.50;;;0.50;;
12846;SDS011;6492;48.128;8.320;2022-11-20T20:48:26;0.90;;;0.60;;
12846;SDS011;6492;48.128;8.320;2022-11-20T20:57:04;0.60;;;0.60;;
12846;SDS011;6492;48.128;8.320;2022-11-20T21:01:08;1.33;;;1.00;;
12846;SDS011;6492;48.128;8.320;2022-11-20T21:05:11;0.80;;;0.80;;
12846;SDS011;6492;48.128;8.320;2022-11-20T21:09:13;2.83;;;0.83;;
12846;SDS011;6492;48.128;8.320;2022-11-20T21:13:15;0.83;;;0.70;;
12846;SDS011;6492;48.128;8.320;2022-11-20T21:17:36;0.63;;;0.60;;
12846;SDS011;6492;48.128;8.320;2022-11-20T21:21:44;1.63;;;0.80;;
12846;SDS011;6492;48.128;8.320;2022-11-20T21:26:04;2.10;;;1.20;;
12846;SDS011;6492;48.128;8.320;2022-11-20T21:30:20;4.23;;;1.10;;
12846;SDS011;6492;48.128;8.320;2022-11-20T21:34:24;3.57;;;1.90;;
12846;SDS011;6492;48.128;8.320;2022-11-20T21:38:26;2.77;;;1.60;;
12846;SDS011;6492;48.128;8.320;2022-11-20T21:42:28;1.67;;;1.57;;
12846;SDS011;6492;48.128;8.320;2022-11-20T21:46:30;1.90;;;1.17;;
12846;SDS011;6492;48.128;8.320;2022-11-20T21:55:10;2.97;;;1.13;;
12846;SDS011;6492;48.128;8.320;2022-11-20T21:59:12;1.67;;;1.23;;
12846;SDS011;6492;48.128;8.320;2022-11-20T22:03:14;1.70;;;1.20;;
12846;SDS011;6492;48.128;8.320;2022-11-20T22:07:18;3.60;;;1.27;;
12846;SDS011;6492;48.128;8.320;2022-11-20T22:11:20;0.97;;;0.93;;
12846;SDS011;6492;48.128;8.320;2022-11-20T22:15:22;1.23;;;1.00;;
12846;SDS011;6492;48.128;8.320;2022-11-20T22:19:25;3.13;;;1.23;;
12846;SDS011;6492;48.128;8.320;2022-11-20T22:23:28;3.10;;;0.80;;
12846;SDS011;6492;48.128;8.320;2022-11-20T22:32:06;2.30;;;0.90;;
12846;SDS011;6492;48.128;8.320;2022-11-20T22:36:08;2.90;;;0.83;;
12846;SDS011;6492;48.128;8.320;2022-11-20T22:40:13;5.37;;;1.10;;
12846;SDS011;6492;48.128;8.320;2022-11-20T22:44:15;1.20;;;1.10;;
12846;SDS011;6492;48.128;8.320;2022-11-20T22:48:17;1.83;;;1.30;;
12846;SDS011;6492;48.128;8.320;2022-11-20T22:52:19;3.60;;;1.10;;
12846;SDS011;6492;48.128;8.320;2022-11-20T22:56:22;1.20;;;0.97;;
12846;SDS011;6492;48.128;8.320;2022-11-20T23:00:24;1.23;;;1.00;;
12846;SDS011;6492;48.128;8.320;2022-11-20T23:04:26;1.80;;;0.90;;
12846;SDS011;6492;48.128;8.320;2022-11-20T23:08:28;2.20;;;0.90;;
12846;SDS011;6492;48.128;8.320;2022-11-20T23:12:32;2.07;;;0.93;;
12846;SDS011;6492;48.128;8.320;2022-11-20T23:16:33;0.90;;;0.80;;
12846;SDS011;6492;48.128;8.320;2022-11-20T23:20:35;2.30;;;1.00;;
12846;SDS011;6492;48.128;8.320;2022-11-20T23:24:37;2.10;;;1.07;;
12846;SDS011;6492;48.128;8.320;2022-11-20T23:28:48;2.27;;;1.20;;
12846;SDS011;6492;48.128;8.320;2022-11-20T23:32:50;3.23;;;1.13;;
12846;SDS011;6492;48.128;8.320;2022-11-20T23:36:52;2.63;;;1.10;;
12846;SDS011;6492;48.128;8.320;2022-11-20T23:40:54;2.67;;;1.30;;
12846;SDS011;6492;48.128;8.320;2022-11-20T23:44:57;3.30;;;1.30;;
12846;SDS011;6492;48.128;8.320;2022-11-20T23:48:59;3.37;;;1.37;;
12846;SDS011;6492;48.128;8.320;2022-11-20T23:53:00;5.03;;;1.67;;
12846;SDS011;6492;48.128;8.320;2022-11-20T23:57:02;2.63;;;1.40;;
